Main page
Satellite images 15-day forecastsClimateMarine weather Cyclones Lightning AirportsFAQ Newsletter About
Weather : Europe Africa North America South America Asia Australia-Oceania Others
Languages Contact

Hanover, Germany

Langenhagen

latitude: 52-28N, longitude: 009-41E, elevation: 56 m


METAR: EDDV 282250Z 18005KT CAVOK 19/14 Q1014
short-TAF: out of date (50950 hours)
long-TAF: EDDV 281700Z 2818/2918 17007KT 9999 SCT040 TEMPO 2903/2908 4500 RA BKN012 BECMG 2907/2909 26008KT

Time: 01:15 (23:15 UTC)

Current weather observation

The report was made 25 minutes ago, at 22:50 UTC  
Wind 05 kt from the South
Temperature 19°C
Humidity 73%
Pressure 1014 hPa
Visibility 10 km or more
no clouds below 1500 m and no cumulonimbus

Change units

Forecast

The report was made 5 hours and 48 minutes ago, at 17:27 UTC  
Forecast valid from 28 at 18 UTC to 29 at 18 UTC
Wind 07 kt from the South
Visibility 10 km or more
Scattered clouds at a height of 4000 ft
Temporary
from 29 at 03 UTC to 29 at 08 UTC
Visibility 4500 m
Broken clouds at a height of 1200 ft
rain
Becoming
from 29 at 07 UTC to 29 at 09 UTC
Wind 08 kt from the West
The information on this site is subject to a disclaimer
Weather : Europe Africa North America South America Asia Australia-Oceania Others
Satellite images 15-day forecastsClimateMarine weather Cyclones Lightning AirportsFAQ Languages Contact Newsletter About